aviador You're here:

KSDC Decoded Metar

in
Report Time2018-01-21 18:35:00
UTC Time2018-01-21 18:22:44
Flight Rules vfr VFR
Wind240° at 03 kt
W.Decomp.*RWY 28: 2.3 kt HW 1.9 kt LCW
W.Rank240° ranks 2
Current wind is below 240° avg. (7.4)
Visibility9999 m
Phenomena:N/A
Clouds:N/A
Expected CloudBase > 2,400 ft AGL from Temp-Dew spread
CeilingNone
Temp06°C
Dew Point00°C (66% RH)
AAT3.0°C
QNH1020 hPa
Raw Report
KSDC 211835Z AUTO 24003KT 10SM CLR 06/00 A3011 RMK AO2=

Extra information for KSDC:More info

Social comments